Time;durP1;ratioP1;P1;durP2;ratioP2;P2;SDS_P1;SDS_P2;PMS_P1;PMS_P2;Temp;Humidity;BMP_temperature;BMP_pressure;BME280_temperature;BME280_humidity;BME280_pressure;Samples;Min_cycle;Max_cycle;Signal;HPM_P1;HPM_P2
2023/03/11 00:01:45;;;;;;;7.22;1.38;;;;;;;19.75;31.93;100681.06;16119643;19;130595;-49
2023/03/11 00:07:08;;;;;;;6.97;1.23;;;;;;;19.69;32.03;100685.72;16118965;19;130438;-47
2023/03/11 00:12:30;;;;;;;5.80;1.55;;;;;;;19.64;31.76;100689.28;16123408;19;129519;-47
2023/03/11 00:17:51;;;;;;;5.25;1.13;;;;;;;19.59;31.99;100689.19;16120183;19;130073;-45
2023/03/11 00:23:14;;;;;;;10.23;1.70;;;;;;;19.53;32.15;100684.69;16122314;19;130307;-50
2023/03/11 00:28:36;;;;;;;8.80;1.63;;;;;;;19.47;32.28;100708.75;16118879;19;129336;-46
2023/03/11 00:33:58;;;;;;;5.75;1.55;;;;;;;19.44;32.34;100702.91;16122440;19;129920;-46
2023/03/11 00:39:20;;;;;;;5.47;1.35;;;;;;;19.40;32.40;100712.81;16120439;19;131031;-48
2023/03/11 00:44:42;;;;;;;6.40;1.40;;;;;;;19.36;32.45;100721.66;16121146;19;130681;-49
2023/03/11 00:50:06;;;;;;;10.70;1.83;;;;;;;19.32;32.45;100728.78;16119302;19;129540;-48
2023/03/11 00:55:31;;;;;;;4.60;1.30;;;;;;;19.30;32.48;100719.06;16117607;19;130394;-47
2023/03/11 01:00:53;;;;;;;8.13;1.30;;;;;;;19.25;32.56;100730.91;16117087;19;129502;-47
2023/03/11 01:06:15;;;;;;;9.55;1.98;;;;;;;19.23;32.51;100744.19;16117873;19;129339;-48
2023/03/11 01:11:36;;;;;;;5.63;1.25;;;;;;;19.20;32.11;100741.94;16116670;19;129659;-47
2023/03/11 01:16:58;;;;;;;5.20;1.50;;;;;;;19.15;32.60;100752.94;16123315;19;131127;-47
2023/03/11 01:22:20;;;;;;;9.65;1.70;;;;;;;19.13;32.22;100746.78;16113345;19;129599;-50
2023/03/11 01:27:42;;;;;;;4.38;1.35;;;;;;;19.08;32.25;100744.78;16114136;19;130083;-49
2023/03/11 01:33:05;;;;;;;7.88;1.70;;;;;;;19.06;32.65;100752.50;16114293;19;130728;-45
2023/03/11 01:38:27;;;;;;;4.20;1.10;;;;;;;19.01;32.39;100749.69;16119024;19;130482;-50
2023/03/11 01:43:53;;;;;;;5.40;1.30;;;;;;;18.98;32.78;100747.41;16119214;19;129519;-46
2023/03/11 01:49:15;;;;;;;6.10;1.30;;;;;;;18.92;32.38;100740.94;16113519;19;130996;-47
2023/03/11 01:54:40;;;;;;;7.85;1.35;;;;;;;18.90;32.77;100737.56;16109515;19;130163;-51
2023/03/11 02:00:08;;;;;;;3.38;1.30;;;;;;;18.86;32.74;100748.34;16115435;19;131529;-52
2023/03/11 02:05:30;;;;;;;5.30;1.10;;;;;;;18.83;32.94;100759.91;16111436;19;130004;-50
2023/03/11 02:10:52;;;;;;;5.30;1.20;;;;;;;18.81;32.91;100769.59;16112002;19;130060;-49
2023/03/11 02:16:15;;;;;;;4.13;1.60;;;;;;;18.76;32.57;100773.94;16118261;19;131225;-47
2023/03/11 02:21:37;;;;;;;5.68;1.08;;;;;;;18.73;32.72;100766.13;16128568;19;129292;-48
2023/03/11 02:27:07;;;;;;;4.05;1.15;;;;;;;18.71;32.91;100754.44;16124474;19;129277;-48
2023/03/11 02:32:28;;;;;;;3.85;1.02;;;;;;;18.68;32.57;100754.97;16124447;19;130399;-46
2023/03/11 02:37:52;;;;;;;6.25;1.20;;;;;;;18.66;33.03;100747.97;16129232;19;131400;-47
2023/03/11 02:43:21;;;;;;;5.60;1.10;;;;;;;18.62;32.84;100742.09;16125878;19;130049;-47
2023/03/11 02:48:43;;;;;;;3.25;1.20;;;;;;;18.61;32.60;100755.13;16127595;19;129199;-45
2023/03/11 02:54:05;;;;;;;6.53;1.40;;;;;;;18.57;32.65;100756.72;16125720;19;129307;-48
2023/03/11 02:59:27;;;;;;;2.75;1.15;;;;;;;18.55;33.14;100774.69;16126502;19;129513;-52
2023/03/11 03:04:49;;;;;;;4.50;1.33;;;;;;;18.53;32.84;100774.09;16126893;19;129543;-47
2023/03/11 03:10:11;;;;;;;4.43;1.10;;;;;;;18.50;32.70;100777.34;16124752;19;132252;-48
2023/03/11 03:15:33;;;;;;;5.05;1.30;;;;;;;18.47;32.99;100784.22;16124563;19;129584;-47
2023/03/11 03:20:55;;;;;;;5.70;1.30;;;;;;;18.44;33.19;100788.34;16119662;19;130707;-49
2023/03/11 03:26:17;;;;;;;4.35;1.23;;;;;;;18.42;33.21;100787.75;16122980;19;132025;-52
2023/03/11 03:31:38;;;;;;;1.40;0.90;;;;;;;18.40;32.87;100795.47;16121407;19;130071;-50
2023/03/11 03:37:00;;;;;;;3.05;1.10;;;;;;;18.38;33.02;100792.06;16119491;19;130230;-50
2023/03/11 03:42:24;;;;;;;5.00;1.50;;;;;;;18.35;33.26;100787.00;16118222;19;131822;-48
2023/03/11 03:47:45;;;;;;;2.75;0.90;;;;;;;18.33;32.83;100794.75;16119291;19;131353;-51
2023/03/11 03:53:07;;;;;;;3.17;1.05;;;;;;;18.31;33.25;100792.22;16115671;19;132140;-46
2023/03/11 03:58:29;;;;;;;2.70;1.05;;;;;;;18.29;32.87;100797.16;16118283;19;130693;-49
2023/03/11 04:03:51;;;;;;;4.45;1.33;;;;;;;18.26;33.28;100799.59;16125352;19;130984;-46
2023/03/11 04:09:13;;;;;;;5.20;1.17;;;;;;;18.24;32.92;100793.44;16118289;19;130773;-47
2023/03/11 04:14:35;;;;;;;3.25;1.00;;;;;;;18.22;33.26;100799.25;16121530;19;130495;-44
2023/03/11 04:19:57;;;;;;;2.20;0.93;;;;;;;18.20;33.36;100801.41;16120265;19;131220;-52
2023/03/11 04:25:18;;;;;;;2.03;0.93;;;;;;;18.18;33.13;100800.81;16115111;19;130305;-51
2023/03/11 04:30:40;;;;;;;6.00;1.45;;;;;;;18.15;33.05;100807.69;16122170;19;131131;-49
2023/03/11 04:36:07;;;;;;;4.70;1.10;;;;;;;18.14;33.26;100808.78;16117849;19;130272;-47
2023/03/11 04:41:29;;;;;;;3.97;1.10;;;;;;;18.11;33.08;100820.34;16118665;19;131378;-48
2023/03/11 04:46:51;;;;;;;3.13;0.90;;;;;;;18.11;33.17;100823.09;16114583;19;132966;-46
2023/03/11 04:52:13;;;;;;;2.78;0.90;;;;;;;18.09;33.11;100822.50;16118833;19;129995;-51
2023/03/11 04:57:35;;;;;;;2.13;0.95;;;;;;;18.08;32.94;100826.38;16118173;19;130827;-51
2023/03/11 05:02:56;;;;;;;3.67;1.20;;;;;;;18.04;33.33;100836.25;16118970;19;129893;-46
2023/03/11 05:08:18;;;;;;;3.58;1.33;;;;;;;18.03;33.25;100842.88;16115969;19;130643;-49
2023/03/11 05:13:40;;;;;;;3.88;1.38;;;;;;;17.99;33.24;100844.44;16116153;19;131234;-49
2023/03/11 05:19:29;;;;;;;1.77;0.73;;;;;;;17.98;33.38;100853.81;16118219;19;129700;-49
2023/03/11 05:24:43;;;;;;;3.45;1.00;;;;;;;17.97;33.38;100853.00;16114139;19;130777;-51
2023/03/11 05:30:06;;;;;;;3.25;1.02;;;;;;;17.96;32.99;100850.47;16117835;19;130788;-52
2023/03/11 05:35:28;;;;;;;3.85;1.08;;;;;;;17.93;33.27;100853.72;16114013;19;133824;-51
2023/03/11 05:40:50;;;;;;;1.90;1.08;;;;;;;17.91;33.33;100861.44;16112875;19;129727;-51
2023/03/11 05:46:11;;;;;;;3.30;0.88;;;;;;;17.90;33.11;100857.84;16117754;19;129722;-51
2023/03/11 05:51:34;;;;;;;1.73;0.70;;;;;;;17.88;33.03;100864.69;16110626;19;130637;-51
2023/03/11 05:56:56;;;;;;;2.90;0.98;;;;;;;17.87;33.30;100874.06;16112529;19;131130;-51
2023/03/11 06:02:19;;;;;;;2.78;0.77;;;;;;;17.85;33.02;100880.69;16113758;19;130606;-52
2023/03/11 06:07:41;;;;;;;3.00;1.20;;;;;;;17.84;32.98;100876.25;16113045;19;130422;-48
2023/03/11 06:13:03;;;;;;;1.88;0.90;;;;;;;17.82;32.93;100889.47;16108710;19;130189;-48
2023/03/11 06:18:25;;;;;;;3.72;1.00;;;;;;;17.79;33.14;100895.50;16107996;19;129701;-48
2023/03/11 06:23:48;;;;;;;1.38;0.63;;;;;;;17.77;33.16;100903.19;16115763;19;130732;-47
2023/03/11 06:29:13;;;;;;;2.45;0.95;;;;;;;17.76;33.32;100911.75;16109124;19;131171;-46
2023/03/11 06:34:36;;;;;;;2.90;1.03;;;;;;;17.75;33.31;100919.19;16111734;19;131232;-48
2023/03/11 06:39:58;;;;;;;2.63;0.90;;;;;;;17.76;33.42;100934.72;16112720;19;129641;-46
2023/03/11 06:45:19;;;;;;;2.53;0.88;;;;;;;17.96;32.81;100942.66;16108008;19;131193;-45
2023/03/11 06:50:41;;;;;;;1.08;0.70;;;;;;;18.51;32.75;100946.09;16111427;19;129310;-51
2023/03/11 06:56:11;;;;;;;2.00;0.90;;;;;;;19.20;31.58;100950.75;16110223;19;131554;-48
2023/03/11 07:01:32;;;;;;;1.80;0.90;;;;;;;19.82;30.93;100953.72;16119691;19;129539;-48
2023/03/11 07:06:54;;;;;;;2.20;0.90;;;;;;;20.22;30.35;100947.13;16127951;19;129692;-48
2023/03/11 07:12:16;;;;;;;1.98;0.80;;;;;;;20.40;30.19;100950.72;16120838;19;131195;-45
2023/03/11 07:17:38;;;;;;;2.15;0.73;;;;;;;20.41;29.95;100967.13;16118670;19;130207;-47
2023/03/11 07:23:00;;;;;;;1.98;0.70;;;;;;;20.34;30.17;100965.63;16122596;19;132058;-46
2023/03/11 07:28:22;;;;;;;2.15;0.70;;;;;;;20.18;30.51;100965.44;16120160;19;130072;-49
2023/03/11 07:33:44;;;;;;;2.28;0.88;;;;;;;20.06;30.62;100971.06;16116674;19;130380;-50
2023/03/11 07:39:07;;;;;;;2.78;0.95;;;;;;;20.02;30.77;100978.22;16117599;19;130330;-46
2023/03/11 07:44:29;;;;;;;0.98;0.80;;;;;;;19.98;30.77;100979.81;16119005;19;129757;-49
2023/03/11 07:49:50;;;;;;;3.30;1.52;;;;;;;19.95;30.73;100981.16;16119797;19;129450;-47
2023/03/11 07:55:13;;;;;;;5.13;0.98;;;;;;;19.94;30.70;100985.00;16123424;19;130603;-46
2023/03/11 08:00:35;;;;;;;13.93;1.27;;;;;;;19.99;30.76;101000.94;16118050;19;131471;-45
2023/03/11 08:05:56;;;;;;;4.45;1.23;;;;;;;20.50;30.31;100997.22;16118711;19;129869;-50
2023/03/11 08:11:20;;;;;;;10.35;1.25;;;;;;;23.11;27.55;101003.59;16118965;19;129621;-50
2023/03/11 08:16:41;;;;;;;6.55;1.23;;;;;;;25.43;25.09;101005.94;16117554;19;130794;-48
2023/03/11 08:22:03;;;;;;;6.45;1.10;;;;;;;27.24;22.93;100998.38;16114164;19;130620;-49
2023/03/11 08:27:27;;;;;;;4.88;1.15;;;;;;;27.54;22.49;101007.50;16114516;19;131987;-48
2023/03/11 08:32:49;;;;;;;5.00;1.20;;;;;;;27.92;22.24;101027.16;16117389;19;129634;-46
2023/03/11 08:38:11;;;;;;;7.55;1.23;;;;;;;29.17;21.41;101033.16;16119632;19;133417;-48
2023/03/11 08:43:33;;;;;;;6.97;1.40;;;;;;;28.33;22.22;101036.81;16117748;19;129884;-49
2023/03/11 08:48:56;;;;;;;2.60;1.05;;;;;;;27.06;23.10;101032.94;16123121;19;129499;-46
2023/03/11 08:54:21;;;;;;;4.85;1.15;;;;;;;26.14;24.14;101036.50;16120795;19;130237;-45
2023/03/11 08:59:43;;;;;;;4.22;0.80;;;;;;;25.41;24.78;101052.16;16117973;19;130047;-50
2023/03/11 09:05:05;;;;;;;3.92;1.13;;;;;;;24.71;25.40;101045.47;16116323;19;130787;-47
2023/03/11 09:10:27;;;;;;;6.97;1.20;;;;;;;24.11;26.51;101049.78;16115141;19;129514;-48
2023/03/11 09:15:52;;;;;;;8.60;1.30;;;;;;;23.60;27.05;101053.41;16113741;19;129412;-49
2023/03/11 09:21:14;;;;;;;11.95;1.30;;;;;;;23.16;27.12;101051.03;16113882;19;131794;-47
2023/03/11 09:26:36;;;;;;;12.48;1.63;;;;;;;22.74;27.75;101064.81;16111250;19;131388;-48
2023/03/11 09:31:58;;;;;;;14.65;1.50;;;;;;;22.44;28.31;101065.47;16117582;19;130764;-49
2023/03/11 09:37:19;;;;;;;14.48;1.70;;;;;;;22.13;28.18;101068.00;16114973;19;131621;-50
2023/03/11 09:42:49;;;;;;;10.65;1.65;;;;;;;21.83;28.39;101061.91;16115924;19;129430;-50
2023/03/11 09:48:33;;;;;;;14.20;1.80;;;;;;;21.57;28.64;101051.63;16118015;19;129342;-48
2023/03/11 09:54:03;;;;;;;19.15;1.70;;;;;;;21.39;28.91;101059.25;16116536;19;129337;-49
2023/03/11 09:59:32;;;;;;;16.00;2.30;;;;;;;21.24;29.32;101070.19;16113689;19;130999;-53
2023/03/11 10:05:07;;;;;;;9.98;2.10;;;;;;;21.09;29.73;101059.75;16111906;19;131305;-49
2023/03/11 10:10:38;;;;;;;10.00;2.53;;;;;;;20.97;29.78;101063.50;16110718;19;130644;-48
2023/03/11 10:16:39;;;;;;;9.88;2.35;;;;;;;20.85;30.24;101074.75;16113146;19;130474;-51
2023/03/11 10:22:13;;;;;;;5.20;2.05;;;;;;;20.75;30.39;101083.78;16100525;19;129484;-47
2023/03/11 10:28:04;;;;;;;12.60;2.65;;;;;;;20.67;29.63;101111.16;16096826;19;129757;-53
2023/03/11 10:33:46;;;;;;;15.45;2.03;;;;;;;20.57;29.32;101107.13;16096232;19;129655;-50
2023/03/11 10:39:10;;;;;;;18.42;2.50;;;;;;;20.50;29.35;101092.56;16114415;19;130588;-52
2023/03/11 10:44:37;;;;;;;21.83;2.90;;;;;;;20.47;29.62;101087.53;16108179;19;131652;-47
2023/03/11 10:49:59;;;;;;;25.77;2.95;;;;;;;20.38;29.65;101087.09;16120530;19;131036;-48
2023/03/11 10:55:21;;;;;;;21.90;2.78;;;;;;;20.33;30.31;101077.84;16122832;19;132600;-51
2023/03/11 11:00:43;;;;;;;13.93;2.20;;;;;;;20.29;30.26;101081.16;16124993;19;130216;-49
2023/03/11 11:06:17;;;;;;;12.93;2.38;;;;;;;20.24;30.37;101080.25;16126255;19;131155;-46
2023/03/11 11:11:39;;;;;;;19.30;3.03;;;;;;;20.20;30.25;101079.06;16123578;19;129810;-46
2023/03/11 11:17:01;;;;;;;20.80;2.53;;;;;;;20.17;30.27;101082.31;16125962;19;130679;-48
2023/03/11 11:22:24;;;;;;;21.52;2.67;;;;;;;20.13;30.51;101066.16;16121746;19;130072;-47
2023/03/11 11:28:00;;;;;;;17.60;2.28;;;;;;;20.16;30.47;101069.53;16126256;19;130591;-49
2023/03/11 11:33:26;;;;;;;23.20;3.13;;;;;;;20.15;30.86;101077.03;16125082;19;129399;-55
2023/03/11 11:38:48;;;;;;;;;;;;;;;20.15;30.93;101077.03;16124863;19;131960;-45
2023/03/11 11:44:18;;;;;;;21.85;2.97;;;;;;;20.21;30.76;101078.78;16124485;19;132778;-46
2023/03/11 11:49:49;;;;;;;19.50;2.25;;;;;;;20.23;30.79;101078.56;16116654;19;129612;-43
2023/03/11 11:55:24;;;;;;;20.10;2.67;;;;;;;20.26;30.62;101083.56;16122792;19;130430;-49
2023/03/11 12:01:05;;;;;;;25.77;2.67;;;;;;;20.29;30.90;101088.63;16118049;19;129561;-48
2023/03/11 12:07:06;;;;;;;25.33;2.50;;;;;;;20.29;30.79;101078.38;16121564;19;129374;-48
2023/03/11 12:12:33;;;;;;;16.98;2.20;;;;;;;20.27;30.98;101080.56;16121803;19;130209;-46
2023/03/11 12:18:01;;;;;;;24.88;2.95;;;;;;;20.27;30.87;101071.38;16121176;19;129697;-49
2023/03/11 12:23:35;;;;;;;11.27;2.28;;;;;;;20.25;30.65;101079.97;16116166;19;129800;-49
2023/03/11 12:29:06;;;;;;;19.33;2.45;;;;;;;20.22;30.75;101062.97;16122736;19;130896;-48
2023/03/11 12:34:32;;;;;;;14.23;2.35;;;;;;;20.16;31.17;101064.84;16117302;19;130170;-48
2023/03/11 12:39:54;;;;;;;19.50;1.73;;;;;;;20.11;31.10;101061.97;16119531;19;130306;-47
2023/03/11 12:45:48;;;;;;;11.73;1.80;;;;;;;20.09;31.23;101053.03;16120797;19;134499;-49
2023/03/11 12:51:25;;;;;;;14.73;1.67;;;;;;;20.05;31.36;101063.81;16116746;19;130744;-48
2023/03/11 12:56:56;;;;;;;21.08;2.47;;;;;;;20.04;31.94;101055.75;16116808;19;130807;-50
2023/03/11 13:02:36;;;;;;;9.95;1.92;;;;;;;20.03;32.24;101048.50;16112460;19;131709;-45
2023/03/11 13:08:15;;;;;;;15.98;2.40;;;;;;;20.03;32.70;101048.50;16119364;19;130544;-47
2023/03/11 13:13:39;;;;;;;19.20;2.05;;;;;;;19.96;32.55;101046.69;16117588;19;129606;-53
2023/03/11 13:19:27;;;;;;;19.65;1.77;;;;;;;19.92;33.03;101036.34;16115018;19;131197;-51
2023/03/11 13:24:49;;;;;;;14.48;1.52;;;;;;;19.87;33.19;101027.97;16114029;19;129851;-55
2023/03/11 13:30:21;;;;;;;14.82;1.70;;;;;;;19.89;33.39;101036.84;16114977;19;130722;-54
2023/03/11 13:36:01;;;;;;;20.45;1.75;;;;;;;20.05;33.53;101029.66;16112234;19;129578;-55
2023/03/11 13:41:30;;;;;;;7.50;1.23;;;;;;;20.21;33.27;101039.06;16105475;19;129849;-52
2023/03/11 13:47:08;;;;;;;17.40;1.65;;;;;;;20.38;32.72;101030.69;16103644;19;129806;-53
2023/03/11 13:52:37;;;;;;;8.68;1.58;;;;;;;20.50;32.49;101020.31;16105229;19;130257;-46
2023/03/11 13:57:59;;;;;;;9.13;1.35;;;;;;;20.55;32.46;101017.63;16114965;19;129669;-49
2023/03/11 14:03:24;;;;;;;5.28;1.20;;;;;;;20.55;32.79;101028.72;16113395;19;130223;-52
2023/03/11 14:08:53;;;;;;;10.27;1.67;;;;;;;20.51;32.71;101027.56;16114655;19;129583;-50
2023/03/11 14:14:44;;;;;;;7.50;1.27;;;;;;;20.42;32.58;101029.09;16145090;19;129283;-52
2023/03/11 14:20:21;;;;;;;4.43;1.40;;;;;;;20.31;32.43;101035.63;16142163;19;129609;-50
2023/03/11 14:25:43;;;;;;;5.63;1.05;;;;;;;20.19;32.22;101046.81;16149434;19;130710;-52
2023/03/11 14:31:05;;;;;;;7.10;1.08;;;;;;;20.11;32.34;101051.72;16142482;19;130125;-44
2023/03/11 14:36:26;;;;;;;6.90;1.10;;;;;;;20.06;32.13;101051.63;16144256;19;129339;-50
2023/03/11 14:41:50;;;;;;;6.90;1.35;;;;;;;20.01;32.54;101053.47;16144087;19;131065;-51
2023/03/11 14:47:20;;;;;;;7.35;1.15;;;;;;;19.94;32.58;101050.81;16140809;19;130861;-52
2023/03/11 14:53:01;;;;;;;7.47;0.88;;;;;;;19.94;32.87;101054.44;16139666;19;132003;-53
2023/03/11 14:58:40;;;;;;;7.40;1.10;;;;;;;20.07;32.74;101055.22;16138480;19;129004;-49
2023/03/11 15:04:06;;;;;;;9.10;0.95;;;;;;;20.28;32.41;101057.25;16132815;19;129626;-48
2023/03/11 15:09:29;;;;;;;4.63;0.85;;;;;;;20.52;32.22;101057.03;16134857;19;129866;-48
2023/03/11 15:14:50;;;;;;;8.48;1.35;;;;;;;20.74;31.42;101047.88;16131382;19;132284;-48
2023/03/11 15:20:23;;;;;;;8.57;1.05;;;;;;;20.90;31.04;101052.56;16132939;19;129821;-47
2023/03/11 15:25:48;;;;;;;12.45;1.50;;;;;;;21.02;31.07;101046.03;16118877;19;132007;-42
2023/03/11 15:31:19;;;;;;;18.30;1.35;;;;;;;21.10;30.78;101048.34;16121321;19;130586;-51
2023/03/11 15:37:00;;;;;;;8.82;1.40;;;;;;;21.09;30.75;101029.97;16122182;19;130675;-48
2023/03/11 15:42:24;;;;;;;14.43;1.50;;;;;;;21.05;30.60;101039.94;16119391;19;131494;-47
2023/03/11 15:47:47;;;;;;;11.45;1.00;;;;;;;21.01;30.58;101041.56;16121425;19;130887;-48
2023/03/11 15:53:09;;;;;;;8.00;1.02;;;;;;;20.90;30.88;101037.81;16123246;19;130424;-48
2023/03/11 15:58:31;;;;;;;14.82;1.90;;;;;;;20.77;31.31;101041.84;16117439;19;130285;-48
2023/03/11 16:03:53;;;;;;;5.28;1.05;;;;;;;20.68;31.13;101038.63;16124879;19;129520;-51
2023/03/11 16:09:16;;;;;;;10.40;1.10;;;;;;;20.59;30.99;101035.44;16120092;19;130227;-48
2023/03/11 16:14:37;;;;;;;5.38;1.20;;;;;;;20.48;31.29;101030.84;16120583;19;129878;-51
2023/03/11 16:19:59;;;;;;;9.73;1.08;;;;;;;20.38;31.45;101034.31;16121491;19;130198;-51
2023/03/11 16:25:42;;;;;;;7.07;1.00;;;;;;;20.32;31.46;101031.72;16118208;19;129616;-50
2023/03/11 16:31:04;;;;;;;3.47;1.30;;;;;;;20.23;31.81;101029.38;16119018;19;130489;-49
2023/03/11 16:36:25;;;;;;;8.55;1.08;;;;;;;20.16;31.46;101020.41;16113284;19;130802;-48
2023/03/11 16:41:47;;;;;;;6.18;1.13;;;;;;;20.08;31.63;101012.47;16117182;19;130029;-48
2023/03/11 16:47:09;;;;;;;6.85;0.98;;;;;;;20.01;31.88;101017.38;16117344;19;129741;-46
2023/03/11 16:52:31;;;;;;;8.90;1.35;;;;;;;19.94;31.89;101014.72;16118945;19;130867;-45
2023/03/11 16:57:56;;;;;;;4.93;0.95;;;;;;;19.86;31.87;101018.78;16119269;19;131361;-47
2023/03/11 17:03:18;;;;;;;12.30;1.20;;;;;;;19.79;31.61;101027.25;16111541;19;130213;-47
2023/03/11 17:08:47;;;;;;;13.98;1.88;;;;;;;19.73;31.64;101035.75;16114622;19;130206;-49
2023/03/11 17:14:09;;;;;;;24.13;3.00;;;;;;;19.67;31.48;101034.81;16116958;19;130003;-46
2023/03/11 17:19:37;;;;;;;29.00;3.78;;;;;;;19.62;31.67;101038.34;16116051;19;129080;-48
2023/03/11 17:24:59;;;;;;;37.00;4.82;;;;;;;19.59;31.59;101038.84;16118948;19;130820;-48
2023/03/11 17:30:20;;;;;;;30.88;4.63;;;;;;;19.54;31.64;101041.56;16116781;19;130494;-51
2023/03/11 17:36:04;;;;;;;33.63;5.35;;;;;;;19.55;32.13;101050.69;16115553;19;130135;-46
2023/03/11 17:41:27;;;;;;;41.75;7.40;;;;;;;19.69;32.25;101050.13;16114665;19;130922;-51
2023/03/11 17:46:48;;;;;;;41.03;8.05;;;;;;;19.93;32.71;101055.56;16109617;19;129737;-51
2023/03/11 17:52:11;;;;;;;47.70;9.07;;;;;;;20.11;32.58;101061.97;16113064;19;131391;-48
2023/03/11 17:57:33;;;;;;;38.30;8.38;;;;;;;20.19;32.37;101058.75;16110584;19;131190;-50
2023/03/11 18:03:05;;;;;;;41.47;8.13;;;;;;;20.21;32.22;101067.69;16116179;19;129182;-50
2023/03/11 18:08:27;;;;;;;29.50;7.75;;;;;;;20.18;31.89;101078.47;16105408;19;130303;-49
2023/03/11 18:13:50;;;;;;;44.78;7.05;;;;;;;20.18;32.30;101075.69;16107147;19;130892;-52
2023/03/11 18:19:11;;;;;;;43.97;7.47;;;;;;;20.16;32.24;101078.72;16109802;19;130014;-49
2023/03/11 18:24:33;;;;;;;33.08;7.20;;;;;;;20.13;32.44;101082.81;16108130;19;132096;-48
2023/03/11 18:29:55;;;;;;;35.13;7.25;;;;;;;20.09;32.59;101089.16;16112725;19;130174;-48
2023/03/11 18:35:17;;;;;;;40.83;7.40;;;;;;;20.08;32.71;101091.09;16109488;19;130381;-48
2023/03/11 18:40:39;;;;;;;36.97;6.38;;;;;;;20.21;32.43;101089.91;16106853;19;130503;-49
2023/03/11 18:46:05;;;;;;;44.78;7.45;;;;;;;20.46;32.39;101088.59;16109272;19;131866;-51
2023/03/11 18:51:29;;;;;;;39.15;6.38;;;;;;;20.77;32.57;101086.31;16108609;19;129574;-53
2023/03/11 18:56:51;;;;;;;33.95;6.20;;;;;;;21.10;32.30;101092.84;16113881;19;129566;-51
2023/03/11 19:02:12;;;;;;;34.63;6.20;;;;;;;21.32;32.15;101091.97;16124474;19;130257;-52
2023/03/11 19:07:34;;;;;;;33.97;6.32;;;;;;;21.41;31.84;101100.72;16123730;19;132580;-50
2023/03/11 19:12:56;;;;;;;36.35;6.18;;;;;;;21.39;32.00;101095.44;16122058;19;130520;-52
2023/03/11 19:18:19;;;;;;;22.27;5.75;;;;;;;21.33;32.16;101088.09;16124252;19;129569;-50
2023/03/11 19:23:41;;;;;;;27.42;5.40;;;;;;;21.22;32.01;101090.78;16121201;19;129936;-49
2023/03/11 19:29:03;;;;;;;30.30;6.35;;;;;;;21.13;32.10;101086.78;16116030;19;129574;-52
2023/03/11 19:34:26;;;;;;;25.67;5.72;;;;;;;21.00;32.72;101089.94;16120122;19;130112;-48
2023/03/11 19:39:47;;;;;;;33.08;5.70;;;;;;;20.87;32.94;101100.34;16125196;19;129549;-50
2023/03/11 19:45:10;;;;;;;30.83;5.32;;;;;;;20.93;32.76;101103.19;16122162;19;130901;-53
2023/03/11 19:50:32;;;;;;;24.70;5.25;;;;;;;21.09;32.58;101088.38;16122625;19;130659;-52
2023/03/11 19:55:56;;;;;;;22.85;5.38;;;;;;;21.30;32.38;101088.63;16121286;19;129432;-54
2023/03/11 20:01:19;;;;;;;19.90;5.05;;;;;;;21.50;32.06;101100.03;16117594;19;130266;-48
2023/03/11 20:06:41;;;;;;;23.63;4.65;;;;;;;21.68;31.91;101081.25;16119695;19;129786;-48
2023/03/11 20:12:03;;;;;;;24.88;4.88;;;;;;;21.80;31.70;101081.94;16117037;19;129431;-49
2023/03/11 20:17:26;;;;;;;22.63;4.97;;;;;;;21.92;32.06;101083.69;16117568;19;130781;-52
2023/03/11 20:22:48;;;;;;;19.75;5.13;;;;;;;22.02;31.94;101083.81;16119252;19;131124;-52
2023/03/11 20:28:10;;;;;;;29.10;5.20;;;;;;;22.13;31.69;101080.00;16115795;19;129813;-53
2023/03/11 20:33:32;;;;;;;17.13;4.25;;;;;;;22.22;31.67;101082.31;16120423;19;133488;-49
2023/03/11 20:38:55;;;;;;;20.38;4.68;;;;;;;22.35;31.24;101087.44;16117569;19;131844;-57
2023/03/11 20:44:16;;;;;;;20.13;3.90;;;;;;;22.40;31.42;101079.09;16123286;19;130195;-52
2023/03/11 20:49:38;;;;;;;27.48;4.13;;;;;;;22.35;32.12;101070.72;16117744;19;130325;-54
2023/03/11 20:55:01;;;;;;;25.08;5.32;;;;;;;22.28;31.97;101070.09;16117054;19;130725;-46
2023/03/11 21:00:23;;;;;;;28.05;3.97;;;;;;;22.15;31.87;101076.94;16116996;19;129673;-52
2023/03/11 21:05:46;;;;;;;21.13;4.50;;;;;;;22.04;31.84;101076.00;16113445;19;130353;-50
2023/03/11 21:11:08;;;;;;;23.05;4.43;;;;;;;21.88;31.16;101068.66;16114306;19;130466;-49
2023/03/11 21:16:29;;;;;;;16.52;3.63;;;;;;;21.79;31.32;101068.28;16114532;19;129506;-51
2023/03/11 21:21:52;;;;;;;20.98;4.18;;;;;;;21.68;31.25;101067.34;16113058;19;131185;-53
2023/03/11 21:27:13;;;;;;;21.00;4.07;;;;;;;21.59;31.64;101067.00;16113884;19;130009;-51
2023/03/11 21:32:35;;;;;;;22.95;4.30;;;;;;;21.50;31.22;101058.28;16113433;19;131177;-49
2023/03/11 21:37:57;;;;;;;14.15;3.50;;;;;;;21.42;31.37;101058.69;16108812;19;131377;-52
2023/03/11 21:43:20;;;;;;;18.83;4.07;;;;;;;21.32;31.54;101055.81;16105610;19;130027;-52
2023/03/11 21:48:41;;;;;;;15.63;3.20;;;;;;;21.21;31.50;101064.06;16108397;19;129475;-49
2023/03/11 21:54:04;;;;;;;9.63;3.28;;;;;;;21.11;32.02;101063.13;16114454;19;130800;-51
2023/03/11 21:59:26;;;;;;;16.95;4.25;;;;;;;20.99;32.07;101057.66;16115802;19;129584;-53
2023/03/11 22:04:48;;;;;;;13.95;3.83;;;;;;;20.87;32.00;101046.66;16115326;19;129357;-53
2023/03/11 22:10:10;;;;;;;11.85;3.70;;;;;;;20.78;32.22;101049.06;16114404;19;130342;-52
2023/03/11 22:15:32;;;;;;;18.23;3.63;;;;;;;20.68;32.13;101054.44;16110112;19;129862;-52
2023/03/11 22:20:56;;;;;;;11.90;3.35;;;;;;;20.59;32.40;101059.63;16113853;19;129926;-52
2023/03/11 22:26:18;;;;;;;12.88;3.85;;;;;;;20.49;32.46;101063.09;16114740;19;129413;-48
2023/03/11 22:31:40;;;;;;;11.00;3.55;;;;;;;20.41;32.34;101058.81;16114235;19;129308;-53
2023/03/11 22:37:02;;;;;;;10.73;3.20;;;;;;;20.34;32.36;101051.75;16129964;19;129244;-51
2023/03/11 22:42:24;;;;;;;14.70;3.78;;;;;;;20.26;32.48;101047.47;16127813;19;131136;-50
2023/03/11 22:47:45;;;;;;;7.57;2.85;;;;;;;20.19;32.21;101035.69;16124705;19;129616;-53
2023/03/11 22:53:07;;;;;;;12.52;3.33;;;;;;;20.12;32.80;101041.44;16125479;19;129509;-49
2023/03/11 22:58:29;;;;;;;10.32;2.90;;;;;;;20.05;32.36;101024.09;16126893;19;129911;-51
2023/03/11 23:03:51;;;;;;;9.95;3.13;;;;;;;19.99;32.68;101039.81;16124939;19;132254;-51
2023/03/11 23:09:13;;;;;;;11.50;3.40;;;;;;;19.93;32.80;101025.00;16125389;19;130856;-49
2023/03/11 23:14:34;;;;;;;8.70;3.10;;;;;;;19.87;32.63;101020.44;16122984;19;129810;-51
2023/03/11 23:20:09;;;;;;;11.95;3.60;;;;;;;19.82;32.63;101021.22;16124062;19;129858;-51
2023/03/11 23:25:32;;;;;;;11.00;3.47;;;;;;;19.77;32.67;101012.78;16124339;19;133355;-53
2023/03/11 23:30:54;;;;;;;8.98;2.85;;;;;;;19.73;32.65;101005.22;16125989;19;130369;-53
2023/03/11 23:36:18;;;;;;;9.73;2.75;;;;;;;19.68;32.58;101003.19;16125276;19;131293;-50
2023/03/11 23:41:40;;;;;;;8.75;3.40;;;;;;;19.64;33.08;100996.47;16123445;19;129493;-51
2023/03/11 23:47:02;;;;;;;6.68;2.75;;;;;;;19.60;32.69;100985.03;16122435;19;130026;-51
2023/03/11 23:52:24;;;;;;;8.32;3.45;;;;;;;19.55;33.17;101004.38;16123211;19;130123;-53
2023/03/11 23:57:46;;;;;;;9.07;2.70;;;;;;;19.53;32.76;101001.00;16123103;19;131375;-52
